Time;durP1;ratioP1;P1;durP2;ratioP2;P2;SDS_P1;SDS_P2;PMS_P1;PMS_P2;Temp;Humidity;BMP_temperature;BMP_pressure;BME280_temperature;BME280_humidity;BME280_pressure;Samples;Min_cycle;Max_cycle;Signal;HPM_P1;HPM_P2
2022/05/03 00:01:42;;;;;;;7.30;4.88;;;12.40;99.90;;;;;;5050224;28;20028;-65
2022/05/03 00:04:26;;;;;;;8.30;4.70;;;12.40;99.90;;;;;;5049986;28;20032;-64
2022/05/03 00:07:19;;;;;;;7.35;4.90;;;12.40;99.90;;;;;;5052290;28;20031;-63
2022/05/03 00:10:08;;;;;;;5.68;4.40;;;12.40;99.90;;;;;;5053113;28;20222;-64
2022/05/03 00:12:41;;;;;;;9.38;5.07;;;12.50;99.90;;;;;;5052891;28;20445;-63
2022/05/03 00:15:08;;;;;;;9.80;5.35;;;12.50;99.90;;;;;;5052955;28;20375;-64
2022/05/03 00:17:34;;;;;;;8.30;4.43;;;12.50;99.90;;;;;;5052928;28;20033;-64
2022/05/03 00:20:02;;;;;;;6.95;5.20;;;12.50;99.90;;;;;;5053225;28;20056;-63
2022/05/03 00:22:28;;;;;;;8.07;5.25;;;12.50;99.90;;;;;;5052259;28;20036;-63
2022/05/03 00:24:54;;;;;;;7.47;5.38;;;12.50;99.90;;;;;;5035478;28;20114;-63
2022/05/03 00:27:25;;;;;;;6.78;4.63;;;12.40;99.90;;;;;;5049510;28;20044;-64
2022/05/03 00:29:56;;;;;;;10.13;5.97;;;12.40;99.90;;;;;;5052422;28;20025;-63
2022/05/03 00:32:23;;;;;;;9.82;5.60;;;12.30;99.90;;;;;;5052818;28;20070;-64
2022/05/03 00:34:49;;;;;;;8.43;4.78;;;12.20;99.90;;;;;;5052660;28;20091;-64
2022/05/03 00:37:16;;;;;;;9.43;5.22;;;12.10;99.90;;;;;;5052667;28;20382;-64
2022/05/03 00:39:41;;;;;;;8.07;5.05;;;12.10;99.90;;;;;;5052449;28;20028;-65
2022/05/03 00:42:18;;;;;;;8.90;5.45;;;12.10;99.90;;;;;;5051821;28;20041;-65
2022/05/03 00:45:07;;;;;;;7.88;5.22;;;12.10;99.90;;;;;;5050774;28;20114;-65
2022/05/03 00:47:38;;;;;;;8.07;5.30;;;12.10;99.90;;;;;;5051333;28;20114;-64
2022/05/03 00:50:07;;;;;;;9.57;4.90;;;12.00;99.90;;;;;;5051114;28;20465;-65
2022/05/03 00:52:39;;;;;;;6.45;4.70;;;12.00;99.90;;;;;;5051332;28;20033;-65
2022/05/03 00:55:37;;;;;;;6.45;4.22;;;12.00;99.90;;;;;;5051086;28;20037;-65
2022/05/03 00:58:25;;;;;;;8.30;4.95;;;12.00;99.90;;;;;;5051193;28;20178;-65
2022/05/03 01:01:21;;;;;;;11.57;5.20;;;12.00;99.90;;;;;;5050915;28;20037;-66
2022/05/03 01:04:27;;;;;;;7.35;4.40;;;11.90;99.90;;;;;;5047859;28;20029;-65
2022/05/03 01:07:25;;;;;;;8.30;5.07;;;11.90;99.90;;;;;;5027276;28;20094;-64
2022/05/03 01:09:54;;;;;;;8.35;4.57;;;11.80;99.90;;;;;;5051008;28;20398;-64
2022/05/03 01:12:46;;;;;;;7.53;4.97;;;11.80;99.90;;;;;;5050799;28;20024;-65
2022/05/03 01:15:17;;;;;;;7.45;4.35;;;11.80;99.90;;;;;;5050653;28;20029;-64
2022/05/03 01:18:05;;;;;;;9.13;4.82;;;11.80;99.90;;;;;;5050860;28;20083;-65
2022/05/03 01:20:49;;;;;;;8.23;5.30;;;11.80;99.90;;;;;;5050871;28;20040;-65
2022/05/03 01:23:26;;;;;;;9.57;4.88;;;11.70;99.90;;;;;;5050767;28;20032;-65
2022/05/03 01:26:13;;;;;;;9.80;6.07;;;11.70;99.90;;;;;;5050176;28;20431;-65
2022/05/03 01:28:53;;;;;;;9.55;5.35;;;11.70;99.90;;;;;;5031013;28;20101;-65
2022/05/03 01:31:22;;;;;;;8.10;4.70;;;11.70;99.90;;;;;;5030791;28;20083;-65
2022/05/03 01:33:49;;;;;;;8.30;5.07;;;11.70;99.90;;;;;;5030511;28;20048;-64
2022/05/03 01:36:30;;;;;;;9.18;5.40;;;11.70;99.90;;;;;;5030573;28;20037;-65
2022/05/03 01:39:21;;;;;;;12.02;5.43;;;11.70;99.90;;;;;;5030922;28;20143;-65
2022/05/03 01:41:56;;;;;;;9.27;5.55;;;11.70;99.90;;;;;;4990419;28;1152282;-65
2022/05/03 01:44:33;;;;;;;9.65;5.78;;;11.70;99.90;;;;;;5031401;28;20026;-65
2022/05/03 01:47:15;;;;;;;8.60;4.93;;;11.60;99.90;;;;;;5046021;28;20100;-65
2022/05/03 01:50:20;;;;;;;6.25;4.55;;;11.60;99.90;;;;;;5036431;28;20115;-65
2022/05/03 01:52:58;;;;;;;6.50;4.63;;;11.60;99.90;;;;;;5027928;28;20454;-65
2022/05/03 01:55:36;;;;;;;9.95;5.13;;;11.50;99.90;;;;;;5035107;28;20090;-64
2022/05/03 01:58:04;;;;;;;8.30;5.35;;;11.50;99.90;;;;;;5047867;28;20025;-65
2022/05/03 02:00:35;;;;;;;9.95;5.63;;;11.50;99.90;;;;;;5047862;28;20529;-65
2022/05/03 02:03:28;;;;;;;8.82;5.03;;;11.50;99.90;;;;;;5047465;28;20032;-65
2022/05/03 02:05:57;;;;;;;9.02;5.47;;;11.50;99.90;;;;;;5050869;28;20037;-64
2022/05/03 02:08:24;;;;;;;6.75;5.30;;;11.50;99.90;;;;;;5051053;28;20025;-64
2022/05/03 02:11:13;;;;;;;9.52;5.32;;;11.50;99.90;;;;;;5050000;28;20076;-65
2022/05/03 02:16:53;;;;;;;7.15;4.95;;;11.40;99.90;;;;;;5050716;28;20390;-64
2022/05/03 02:19:36;;;;;;;8.95;5.28;;;11.40;99.90;;;;;;5050678;28;20044;-64
2022/05/03 02:22:23;;;;;;;7.68;4.88;;;11.40;99.90;;;;;;5050647;28;20358;-65
2022/05/03 02:25:18;;;;;;;10.00;5.78;;;11.40;99.90;;;;;;5050535;28;20044;-64
2022/05/03 02:27:53;;;;;;;8.80;5.13;;;11.40;99.90;;;;;;5050318;28;20394;-65
2022/05/03 02:30:19;;;;;;;11.65;5.90;;;11.30;99.90;;;;;;5050446;28;20025;-65
2022/05/03 02:32:57;;;;;;;9.75;5.95;;;11.30;99.90;;;;;;5044817;28;20022;-65
2022/05/03 02:35:24;;;;;;;10.43;5.80;;;11.30;99.90;;;;;;5029626;28;20041;-65
2022/05/03 02:37:55;;;;;;;8.38;4.95;;;11.30;99.90;;;;;;5027159;28;20848;-65
2022/05/03 02:40:25;;;;;;;8.10;5.85;;;11.30;99.90;;;;;;5027309;28;20391;-64
2022/05/03 02:42:54;;;;;;;9.75;6.68;;;11.30;99.90;;;;;;5027253;28;20045;-65
2022/05/03 02:45:20;;;;;;;9.57;5.32;;;11.20;99.90;;;;;;5027738;28;20482;-64
2022/05/03 02:48:01;;;;;;;9.38;5.70;;;11.20;99.90;;;;;;5030543;28;20028;-64
2022/05/03 02:50:35;;;;;;;8.63;5.40;;;11.20;99.90;;;;;;5030666;28;20021;-64
2022/05/03 02:53:14;;;;;;;10.68;5.88;;;11.30;99.90;;;;;;5030206;28;20057;-64
2022/05/03 02:56:05;;;;;;;9.68;5.20;;;11.30;99.90;;;;;;5040192;28;20040;-65
2022/05/03 02:58:33;;;;;;;12.05;5.85;;;11.30;99.90;;;;;;5050076;28;20024;-64
2022/05/03 03:04:08;;;;;;;9.20;5.50;;;11.20;99.90;;;;;;5050213;28;20035;-66
2022/05/03 03:06:37;;;;;;;7.78;5.22;;;11.30;99.90;;;;;;5050123;28;20033;-65
2022/05/03 03:09:05;;;;;;;8.15;5.00;;;11.20;99.90;;;;;;5050176;28;20025;-64
2022/05/03 03:12:02;;;;;;;10.70;5.70;;;11.30;99.90;;;;;;5049745;28;20056;-65
2022/05/03 03:14:39;;;;;;;8.23;5.38;;;11.30;99.90;;;;;;5049577;28;20041;-65
2022/05/03 03:17:10;;;;;;;11.30;5.82;;;11.30;99.90;;;;;;5050046;28;20556;-64
2022/05/03 03:19:57;;;;;;;11.90;6.43;;;11.30;99.90;;;;;;5049967;28;20120;-65
2022/05/03 03:22:28;;;;;;;9.48;5.95;;;11.30;99.90;;;;;;5049630;28;20079;-66
2022/05/03 03:24:56;;;;;;;11.13;6.68;;;11.30;99.90;;;;;;5049755;28;20035;-65
2022/05/03 03:27:24;;;;;;;9.30;6.10;;;11.30;99.90;;;;;;5049727;28;20060;-65
2022/05/03 03:29:55;;;;;;;10.35;5.90;;;11.20;99.90;;;;;;5049623;28;20552;-65
2022/05/03 03:32:21;;;;;;;;;;;11.20;99.90;;;;;;5049577;28;20071;-64
2022/05/03 03:34:49;;;;;;;8.32;4.05;;;11.30;99.90;;;;;;5049630;28;19920;-64
2022/05/03 03:37:18;;;;;;;10.35;6.63;;;11.30;99.90;;;;;;5049735;28;20052;-65
2022/05/03 03:39:44;;;;;;;9.47;5.50;;;11.20;99.90;;;;;;5049741;28;20477;-64
2022/05/03 03:42:10;;;;;;;12.63;7.22;;;11.20;99.90;;;;;;5049299;28;20056;-64
2022/05/03 03:44:36;;;;;;;11.02;6.13;;;11.20;99.90;;;;;;5049740;28;20416;-64
2022/05/03 03:47:03;;;;;;;8.60;5.57;;;11.20;99.90;;;;;;5049985;28;20017;-64
2022/05/03 03:49:29;;;;;;;11.27;5.95;;;11.20;99.90;;;;;;5049609;28;20036;-65
2022/05/03 03:51:57;;;;;;;9.00;5.68;;;11.20;99.90;;;;;;5049525;28;20029;-64
2022/05/03 03:54:24;;;;;;;12.02;6.03;;;11.20;99.90;;;;;;5049441;28;20501;-64
2022/05/03 03:56:51;;;;;;;11.48;6.25;;;11.20;99.90;;;;;;5049282;28;20024;-64
2022/05/03 03:59:18;;;;;;;9.52;5.75;;;11.20;99.90;;;;;;5049433;28;20036;-64
2022/05/03 04:01:43;;;;;;;10.90;5.57;;;11.20;99.90;;;;;;5049159;28;20512;-64
2022/05/03 04:04:11;;;;;;;8.02;5.30;;;11.30;99.90;;;;;;5049388;28;20025;-65
2022/05/03 04:06:37;;;;;;;7.95;5.32;;;11.30;99.90;;;;;;5049807;28;20025;-64
2022/05/03 04:09:04;;;;;;;7.55;5.25;;;11.30;99.90;;;;;;5049495;28;20025;-65
2022/05/03 04:11:42;;;;;;;12.07;6.13;;;11.30;99.90;;;;;;5049243;28;20572;-65
2022/05/03 04:14:07;;;;;;;10.60;6.00;;;11.20;99.90;;;;;;5049115;28;20013;-64
2022/05/03 04:16:33;;;;;;;10.30;5.68;;;11.20;99.90;;;;;;5047077;28;20470;-65
2022/05/03 04:18:59;;;;;;;10.35;5.45;;;11.20;99.90;;;;;;5048620;28;20499;-65
2022/05/03 04:21:24;;;;;;;8.93;5.90;;;11.20;99.90;;;;;;5051096;28;20025;-65
2022/05/03 04:23:50;;;;;;;10.95;6.50;;;11.20;99.90;;;;;;5052882;28;20063;-64
2022/05/03 04:26:15;;;;;;;11.35;5.68;;;11.20;99.90;;;;;;5052721;28;20021;-64
2022/05/03 04:28:41;;;;;;;10.45;6.38;;;11.20;99.90;;;;;;5052829;28;20028;-64
2022/05/03 04:31:07;;;;;;;8.02;5.47;;;11.30;99.90;;;;;;5051113;28;20086;-64
2022/05/03 04:33:33;;;;;;;10.10;6.03;;;11.30;99.90;;;;;;5047886;28;20111;-64
2022/05/03 04:35:59;;;;;;;10.82;5.65;;;11.20;99.90;;;;;;5031036;28;20073;-64
2022/05/03 04:38:25;;;;;;;10.57;5.18;;;11.20;99.90;;;;;;5031624;28;20446;-64
2022/05/03 04:40:57;;;;;;;8.60;5.38;;;11.20;99.90;;;;;;5032472;28;20028;-64
2022/05/03 04:43:23;;;;;;;11.50;6.15;;;11.20;99.90;;;;;;5032427;28;20034;-64
2022/05/03 04:45:49;;;;;;;8.88;5.05;;;11.20;99.90;;;;;;5032588;28;20025;-64
2022/05/03 04:48:14;;;;;;;9.73;5.53;;;11.10;99.90;;;;;;5032549;28;20120;-64
2022/05/03 04:50:41;;;;;;;8.82;5.35;;;11.10;99.90;;;;;;5032507;28;20029;-64
2022/05/03 04:53:06;;;;;;;7.60;4.70;;;11.00;99.90;;;;;;5032545;28;20025;-64
2022/05/03 04:55:32;;;;;;;8.90;5.20;;;11.00;99.90;;;;;;5041215;28;20037;-64
2022/05/03 04:57:58;;;;;;;8.10;5.32;;;11.00;99.90;;;;;;5052231;28;20029;-64
2022/05/03 05:00:23;;;;;;;9.48;5.07;;;11.00;99.90;;;;;;5051793;28;20036;-64
2022/05/03 05:02:49;;;;;;;7.35;4.43;;;11.00;99.90;;;;;;5048958;28;20025;-64
2022/05/03 05:05:15;;;;;;;8.77;6.03;;;11.00;99.90;;;;;;5049479;28;20041;-64
2022/05/03 05:07:40;;;;;;;7.43;4.53;;;11.00;99.90;;;;;;5050156;28;20402;-64
2022/05/03 05:10:26;;;;;;;10.20;5.53;;;11.00;99.90;;;;;;5051981;28;20056;-64
2022/05/03 05:12:55;;;;;;;9.25;6.07;;;10.90;99.90;;;;;;5052030;28;20020;-64
2022/05/03 05:15:25;;;;;;;9.20;4.93;;;11.00;99.90;;;;;;5051944;28;20141;-64
2022/05/03 05:17:52;;;;;;;9.50;5.90;;;11.00;99.90;;;;;;5052113;28;20018;-64
2022/05/03 05:20:18;;;;;;;8.65;5.40;;;11.00;99.90;;;;;;5051776;28;20075;-64
2022/05/03 05:22:45;;;;;;;9.40;5.07;;;11.10;99.90;;;;;;5048879;28;20025;-64
2022/05/03 05:25:10;;;;;;;9.18;5.55;;;11.10;99.90;;;;;;5048502;28;20297;-64
2022/05/03 05:27:36;;;;;;;7.85;5.20;;;11.20;99.90;;;;;;5049932;28;20480;-64
2022/05/03 05:30:06;;;;;;;10.60;5.97;;;11.30;99.90;;;;;;5049816;28;20037;-64
2022/05/03 05:32:32;;;;;;;8.27;5.18;;;11.30;99.90;;;;;;5049212;28;20025;-64
2022/05/03 05:34:58;;;;;;;7.88;4.90;;;11.30;99.90;;;;;;5048271;28;20123;-64
2022/05/03 05:37:24;;;;;;;8.88;5.90;;;11.40;99.90;;;;;;5048764;28;20292;-64
2022/05/03 05:39:49;;;;;;;11.75;6.38;;;11.50;99.90;;;;;;5048339;28;20697;-64
2022/05/03 05:42:15;;;;;;;9.25;5.65;;;11.60;99.90;;;;;;5050236;28;20047;-64
2022/05/03 05:44:40;;;;;;;9.85;5.93;;;11.70;99.90;;;;;;5051234;28;20025;-64
2022/05/03 05:47:06;;;;;;;11.52;6.25;;;11.70;99.90;;;;;;5051130;28;20029;-64
2022/05/03 05:49:32;;;;;;;10.18;6.50;;;11.80;99.90;;;;;;5051140;28;20021;-64
2022/05/03 05:53:31;;;;;;;8.75;5.68;;;11.80;99.90;;;;;;5051145;28;20028;-64
2022/05/03 05:54:44;;;;;;;8.52;5.75;;;11.90;99.90;;;;;;5050850;28;20437;-66
2022/05/03 05:57:09;;;;;;;9.48;5.30;;;11.90;99.90;;;;;;5050752;28;20021;-66
2022/05/03 05:59:35;;;;;;;9.82;5.68;;;12.00;99.90;;;;;;5050711;28;20390;-64
2022/05/03 06:02:01;;;;;;;6.90;5.38;;;12.10;99.90;;;;;;5047872;28;20103;-64
2022/05/03 06:04:29;;;;;;;10.60;6.72;;;12.10;99.90;;;;;;5047938;28;20469;-64
2022/05/03 06:06:55;;;;;;;10.18;5.78;;;12.20;99.90;;;;;;5048959;28;20021;-64
2022/05/03 06:09:22;;;;;;;9.82;5.75;;;12.20;99.90;;;;;;5050858;28;20079;-64
2022/05/03 06:11:48;;;;;;;10.27;6.95;;;12.30;99.90;;;;;;5050593;28;20032;-64
2022/05/03 06:14:14;;;;;;;10.40;6.60;;;12.40;99.90;;;;;;5050504;28;20032;-64
2022/05/03 06:16:50;;;;;;;9.80;6.22;;;12.40;99.90;;;;;;5050405;28;20033;-64
2022/05/03 06:19:16;;;;;;;10.75;6.07;;;12.50;99.90;;;;;;5050665;28;20032;-64
2022/05/03 06:21:42;;;;;;;8.75;5.93;;;12.60;99.90;;;;;;5048350;28;20060;-63
2022/05/03 06:24:08;;;;;;;9.98;6.35;;;12.60;99.90;;;;;;5047436;28;20025;-64
2022/05/03 06:26:34;;;;;;;8.63;5.95;;;12.70;99.90;;;;;;5047203;28;20048;-64
2022/05/03 06:29:01;;;;;;;10.73;6.57;;;12.80;99.90;;;;;;5047365;28;20017;-64
2022/05/03 06:31:28;;;;;;;10.35;6.45;;;12.90;99.90;;;;;;5047098;28;20100;-64
2022/05/03 06:33:55;;;;;;;10.10;6.30;;;12.90;99.90;;;;;;5046429;28;20104;-68
2022/05/03 06:36:21;;;;;;;9.90;5.10;;;13.00;99.90;;;;;;5031901;28;20045;-67
2022/05/03 06:38:47;;;;;;;8.80;6.22;;;13.10;99.90;;;;;;5030148;28;20079;-67
2022/05/03 06:41:13;;;;;;;9.80;5.60;;;13.20;99.90;;;;;;5029636;28;20029;-67
2022/05/03 06:43:39;;;;;;;7.82;5.57;;;13.30;99.90;;;;;;5030088;28;20052;-67
2022/05/03 06:46:04;;;;;;;10.80;6.00;;;13.40;99.90;;;;;;5029756;28;20033;-66
2022/05/03 06:48:30;;;;;;;11.30;6.20;;;13.50;99.90;;;;;;5030056;28;20024;-67
2022/05/03 06:50:56;;;;;;;9.50;6.30;;;13.60;99.90;;;;;;5030132;28;20037;-66
2022/05/03 06:53:21;;;;;;;9.68;5.70;;;13.80;99.90;;;;;;5030017;28;20038;-66
2022/05/03 06:55:47;;;;;;;11.13;6.18;;;13.90;99.90;;;;;;5040818;28;20033;-67
2022/05/03 06:58:13;;;;;;;9.43;6.65;;;14.10;99.90;;;;;;5049604;28;20069;-66
2022/05/03 07:00:39;;;;;;;7.80;5.60;;;14.10;99.90;;;;;;5048649;28;20565;-67
2022/05/03 07:03:06;;;;;;;9.85;6.15;;;14.20;99.90;;;;;;5046597;28;20112;-67
2022/05/03 07:05:32;;;;;;;8.68;5.40;;;14.40;99.90;;;;;;5046458;28;20064;-67
2022/05/03 07:07:59;;;;;;;10.95;5.60;;;14.60;99.90;;;;;;5048429;28;20036;-67
2022/05/03 07:10:25;;;;;;;10.15;5.50;;;14.70;99.90;;;;;;5049357;28;20111;-67
2022/05/03 07:12:50;;;;;;;9.93;6.03;;;14.90;99.90;;;;;;5049599;28;20105;-68
2022/05/03 07:15:18;;;;;;;8.13;5.90;;;14.90;99.90;;;;;;5049694;28;20127;-67
2022/05/03 07:23:15;;;;;;;10.23;6.50;;;15.10;99.90;;;;;;5046290;28;20048;-67
2022/05/03 07:25:40;;;;;;;10.00;5.82;;;15.10;99.90;;;;;;5046601;28;20025;-68
2022/05/03 07:28:07;;;;;;;9.90;6.40;;;15.10;99.90;;;;;;5049212;28;20043;-67
2022/05/03 07:30:35;;;;;;;11.05;6.30;;;15.10;99.90;;;;;;5049077;28;20112;-67
2022/05/03 07:33:00;;;;;;;12.45;6.68;;;15.10;99.90;;;;;;5039181;28;20450;-69
2022/05/03 07:35:26;;;;;;;11.77;6.60;;;15.00;99.90;;;;;;5035756;28;20516;-67
2022/05/03 07:37:52;;;;;;;9.52;6.30;;;15.00;99.90;;;;;;5048884;28;20029;-65
2022/05/03 07:40:18;;;;;;;10.90;6.05;;;15.00;99.90;;;;;;5047444;28;20113;-63
2022/05/03 07:42:44;;;;;;;10.68;5.82;;;14.90;99.90;;;;;;5036432;28;20411;-63
2022/05/03 07:45:10;;;;;;;12.25;7.60;;;15.10;99.90;;;;;;5028741;28;20075;-64
2022/05/03 07:47:36;;;;;;;13.55;6.35;;;15.00;99.90;;;;;;5029098;28;20033;-64
2022/05/03 07:50:03;;;;;;;11.73;6.55;;;15.00;99.90;;;;;;5042960;28;20037;-64
2022/05/03 07:52:29;;;;;;;12.57;7.40;;;15.10;99.90;;;;;;5048655;28;20036;-66
2022/05/03 07:54:55;;;;;;;11.18;6.25;;;15.30;99.90;;;;;;5052434;28;20037;-65
2022/05/03 07:57:21;;;;;;;10.93;6.43;;;15.40;99.90;;;;;;5052341;28;20074;-64
2022/05/03 07:59:47;;;;;;;11.68;7.45;;;15.30;99.90;;;;;;5052528;28;20048;-69
2022/05/03 08:02:12;;;;;;;14.70;7.95;;;15.50;99.90;;;;;;5052411;28;20025;-64
2022/05/03 08:04:39;;;;;;;13.13;7.55;;;15.50;98.50;;;;;;5052130;28;20041;-65
2022/05/03 08:07:05;;;;;;;14.15;8.05;;;15.50;99.00;;;;;;5052827;28;20489;-64
2022/05/03 08:09:31;;;;;;;12.57;7.70;;;15.60;98.70;;;;;;5051528;28;20025;-64
2022/05/03 08:11:57;;;;;;;15.98;8.40;;;15.70;98.50;;;;;;5052740;28;20029;-64
2022/05/03 08:14:22;;;;;;;13.77;7.45;;;15.60;97.70;;;;;;5052938;28;20036;-64
2022/05/03 08:16:48;;;;;;;11.02;7.40;;;16.00;98.00;;;;;;5052790;28;20028;-64
2022/05/03 08:19:14;;;;;;;11.55;7.03;;;16.00;97.50;;;;;;5052455;28;20071;-64
2022/05/03 08:21:39;;;;;;;16.38;8.30;;;16.20;96.90;;;;;;5052856;28;20070;-64
2022/05/03 08:24:06;;;;;;;14.35;8.10;;;16.20;96.40;;;;;;5050633;28;20029;-64
2022/05/03 08:26:33;;;;;;;17.27;9.23;;;16.30;96.70;;;;;;5049373;28;20028;-64
2022/05/03 08:29:00;;;;;;;16.58;8.15;;;16.30;96.10;;;;;;5051426;28;20040;-64
2022/05/03 08:31:26;;;;;;;13.27;7.22;;;16.40;96.10;;;;;;5051021;28;20104;-65
2022/05/03 08:33:52;;;;;;;15.00;7.72;;;16.50;95.90;;;;;;5033980;28;20025;-65
2022/05/03 08:36:17;;;;;;;13.45;8.07;;;16.60;94.70;;;;;;5032724;28;20037;-64
2022/05/03 08:44:29;;;;;;;;;;;16.50;95.30;;;;;;5010697;28;20046;-64
2022/05/03 08:46:56;;;;;;;14.48;7.75;;;16.60;95.20;;;;;;5027953;28;19913;-64
2022/05/03 08:49:32;;;;;;;15.23;8.23;;;16.70;95.40;;;;;;5032315;28;20062;-63
2022/05/03 08:52:02;;;;;;;15.75;7.75;;;16.90;94.90;;;;;;5032265;28;20091;-63
2022/05/03 08:54:28;;;;;;;15.68;8.32;;;16.80;93.60;;;;;;5032340;28;20457;-63
2022/05/03 08:56:55;;;;;;;12.88;8.23;;;16.70;94.00;;;;;;5052076;28;20510;-64
2022/05/03 08:59:23;;;;;;;14.65;8.02;;;16.70;93.00;;;;;;5052164;28;20025;-63
2022/05/03 09:01:48;;;;;;;17.88;9.48;;;16.80;93.70;;;;;;5051941;28;20562;-63
2022/05/03 09:04:14;;;;;;;19.20;9.30;;;16.90;92.60;;;;;;5052056;28;20108;-64
2022/05/03 09:06:45;;;;;;;17.52;9.73;;;16.90;93.60;;;;;;5052056;28;20465;-62
2022/05/03 09:09:15;;;;;;;18.08;9.13;;;17.30;95.60;;;;;;5052224;28;20056;-62
2022/05/03 09:11:44;;;;;;;19.08;10.80;;;17.60;95.80;;;;;;5051666;28;20116;-62
2022/05/03 09:14:10;;;;;;;18.80;10.20;;;17.80;93.50;;;;;;5051313;28;20580;-62
2022/05/03 09:16:48;;;;;;;17.70;9.68;;;17.70;93.70;;;;;;5051122;28;20234;-62
2022/05/03 09:19:25;;;;;;;17.45;10.05;;;17.90;95.80;;;;;;5050402;28;20025;-65
2022/05/03 09:25:13;;;;;;;17.35;9.80;;;18.10;94.50;;;;;;5048531;28;20029;-66
2022/05/03 09:27:39;;;;;;;17.00;9.98;;;18.20;92.20;;;;;;5025919;28;20057;-64
2022/05/03 09:30:06;;;;;;;18.85;9.98;;;18.50;93.10;;;;;;5046343;28;20061;-65
2022/05/03 09:32:47;;;;;;;16.40;9.35;;;18.50;91.50;;;;;;5051335;28;20032;-65
2022/05/03 09:35:32;;;;;;;16.52;9.85;;;18.60;91.30;;;;;;5049825;28;20123;-65
2022/05/03 09:37:59;;;;;;;18.25;10.13;;;18.60;91.60;;;;;;5051357;28;20021;-65
2022/05/03 09:40:25;;;;;;;17.98;9.85;;;19.00;90.40;;;;;;5051399;28;20111;-65
2022/05/03 09:42:56;;;;;;;19.38;10.35;;;19.50;90.50;;;;;;5049868;28;20125;-65
2022/05/03 09:45:25;;;;;;;20.45;10.82;;;20.00;85.10;;;;;;5047836;28;20417;-65
2022/05/03 09:47:56;;;;;;;20.65;10.68;;;20.60;86.30;;;;;;5048121;28;20396;-65
2022/05/03 09:50:44;;;;;;;19.67;11.00;;;20.70;83.70;;;;;;5051457;28;20029;-66
2022/05/03 09:53:16;;;;;;;17.95;8.98;;;21.00;83.70;;;;;;5051175;28;20060;-62
2022/05/03 09:55:42;;;;;;;19.05;10.10;;;21.10;81.90;;;;;;5050886;28;20041;-63
2022/05/03 09:58:10;;;;;;;22.58;12.00;;;21.90;80.10;;;;;;5050736;28;20025;-62
2022/05/03 10:00:38;;;;;;;18.55;10.40;;;22.20;75.00;;;;;;5051027;28;20028;-62
2022/05/03 10:03:07;;;;;;;21.15;11.32;;;22.10;75.20;;;;;;5050512;28;20529;-65
2022/05/03 10:05:34;;;;;;;20.08;11.85;;;22.40;77.40;;;;;;5050540;28;20025;-64
2022/05/03 10:08:00;;;;;;;22.48;12.05;;;22.10;74.30;;;;;;5050511;28;20510;-64
2022/05/03 10:10:27;;;;;;;21.85;12.50;;;21.90;77.90;;;;;;5050608;28;20029;-64
2022/05/03 10:12:54;;;;;;;22.38;11.52;;;22.40;77.70;;;;;;5050860;28;20032;-64
2022/05/03 10:21:35;;;;;;;22.25;11.85;;;21.60;75.90;;;;;;5033550;28;20072;-63
2022/05/03 10:24:11;;;;;;;19.92;11.55;;;21.70;75.50;;;;;;5047250;28;20068;-64
2022/05/03 10:27:01;;;;;;;22.33;11.57;;;21.60;77.20;;;;;;5046033;28;20163;-64
2022/05/03 10:29:32;;;;;;;22.15;11.73;;;21.20;77.10;;;;;;5047468;28;20032;-64
2022/05/03 10:32:07;;;;;;;18.77;11.02;;;21.60;75.00;;;;;;5047008;28;20508;-63
2022/05/03 10:34:42;;;;;;;19.23;10.60;;;22.00;79.00;;;;;;5049656;28;20037;-65
2022/05/03 10:37:13;;;;;;;21.67;11.23;;;22.20;77.10;;;;;;5050381;28;20032;-63
2022/05/03 10:39:45;;;;;;;22.10;11.45;;;21.70;75.20;;;;;;5046846;28;20032;-59
2022/05/03 10:42:13;;;;;;;19.48;11.00;;;21.40;75.40;;;;;;5049793;28;20131;-59
2022/05/03 10:44:44;;;;;;;20.33;11.13;;;22.20;74.60;;;;;;5049610;28;20056;-58
2022/05/03 10:47:10;;;;;;;;;;;23.30;66.70;;;;;;5048725;28;20032;-59
2022/05/03 10:50:19;;;;;;;14.45;9.07;;;25.50;64.40;;;;;;5046799;28;19932;-59
2022/05/03 10:52:59;;;;;;;17.13;10.02;;;26.60;56.80;;;;;;5028021;28;20120;-59
2022/05/03 10:55:47;;;;;;;18.63;10.65;;;25.20;53.70;;;;;;5037882;28;20068;-58
2022/05/03 10:58:26;;;;;;;16.65;9.75;;;24.40;51.40;;;;;;5035210;28;20042;-58
2022/05/03 11:01:20;;;;;;;19.90;10.40;;;23.50;58.70;;;;;;5029057;28;20029;-59
2022/05/03 11:03:48;;;;;;;21.05;10.38;;;22.70;58.00;;;;;;5026525;28;20112;-59
2022/05/03 11:06:23;;;;;;;15.98;10.98;;;22.20;60.20;;;;;;5027104;28;20422;-59
2022/05/03 11:08:58;;;;;;;20.35;10.68;;;21.70;63.60;;;;;;5029310;28;20049;-58
2022/05/03 11:11:39;;;;;;;19.10;9.70;;;22.10;64.90;;;;;;5029014;28;20501;-61
2022/05/03 11:14:05;;;;;;;;;;;21.70;66.00;;;;;;5028710;28;20390;-74
2022/05/03 11:16:37;;;;;;;17.42;10.13;;;21.90;65.30;;;;;;5046292;28;19989;-73
2022/05/03 11:19:10;;;;;;;15.90;9.60;;;21.90;63.70;;;;;;5046736;28;20025;-74
2022/05/03 11:21:36;;;;;;;16.98;10.32;;;21.30;65.40;;;;;;5046618;28;20064;-74
2022/05/03 11:24:02;;;;;;;15.13;9.38;;;21.20;66.10;;;;;;5046421;28;20017;-74
2022/05/03 11:26:28;;;;;;;16.92;10.95;;;20.70;70.70;;;;;;5045904;28;20025;-76
2022/05/03 11:28:58;;;;;;;19.70;12.00;;;20.20;73.90;;;;;;5050606;28;20088;-74
2022/05/03 11:31:26;;;;;;;18.10;10.40;;;19.70;76.90;;;;;;5050798;28;20065;-75
2022/05/03 11:33:58;;;;;;;21.98;10.45;;;19.40;80.10;;;;;;5050821;28;20029;-76
2022/05/03 11:36:31;;;;;;;17.98;10.80;;;19.20;82.20;;;;;;5050467;28;20181;-75
2022/05/03 11:38:57;;;;;;;17.70;10.82;;;19.00;84.00;;;;;;5050506;28;20041;-74
2022/05/03 11:41:28;;;;;;;20.63;11.00;;;18.70;86.80;;;;;;5050353;28;20037;-75
2022/05/03 11:43:54;;;;;;;;;;;18.50;86.70;;;;;;5050923;28;20048;-76
2022/05/03 11:46:21;;;;;;;18.63;9.93;;;18.70;88.30;;;;;;5050020;28;19904;-75
2022/05/03 11:49:09;;;;;;;17.15;10.07;;;19.10;86.20;;;;;;5050453;28;20108;-74
2022/05/03 11:57:27;;;;;;;20.75;11.35;;;24.40;61.10;;;;;;5050380;28;20093;-75
2022/05/03 11:59:58;;;;;;;21.65;11.38;;;25.50;54.00;;;;;;5050201;28;20104;-78
2022/05/03 12:02:30;;;;;;;15.70;9.55;;;25.20;54.30;;;;;;5049106;28;20033;-73
2022/05/03 12:05:05;;;;;;;18.02;10.48;;;23.90;53.20;;;;;;5049972;28;20079;-73
2022/05/03 12:07:36;;;;;;;17.00;10.23;;;23.20;56.00;;;;;;5050395;28;20108;-72
2022/05/03 12:10:24;;;;;;;19.23;10.07;;;22.30;61.20;;;;;;5049901;28;20029;-73
2022/05/03 12:13:02;;;;;;;18.23;10.05;;;21.70;66.10;;;;;;5049534;28;20025;-74
2022/05/03 12:15:28;;;;;;;19.63;11.00;;;20.90;69.50;;;;;;5049751;28;20040;-73
2022/05/03 12:18:00;;;;;;;18.13;10.75;;;20.00;74.10;;;;;;5049979;28;20037;-72
2022/05/03 12:20:41;;;;;;;16.08;9.48;;;19.90;77.80;;;;;;5036033;28;20033;-72
2022/05/03 12:23:11;;;;;;;18.35;10.30;;;21.10;74.40;;;;;;5030018;28;20029;-74
2022/05/03 12:25:42;;;;;;;18.67;10.23;;;20.90;72.00;;;;;;5038187;28;20395;-73
2022/05/03 12:28:08;;;;;;;21.20;9.27;;;20.50;73.40;;;;;;5049306;28;20405;-71
2022/05/03 12:30:34;;;;;;;18.63;9.90;;;20.80;72.20;;;;;;5049612;28;20032;-72
2022/05/03 12:33:02;;;;;;;18.58;10.20;;;20.60;72.10;;;;;;5049428;28;20033;-71
2022/05/03 12:35:32;;;;;;;15.65;9.48;;;22.90;67.00;;;;;;5049334;28;20122;-75
2022/05/03 12:38:07;;;;;;;18.20;9.98;;;26.50;55.50;;;;;;5049526;28;20024;-75
2022/05/03 12:40:33;;;;;;;18.23;9.63;;;28.50;44.00;;;;;;5048635;28;20501;-76
2022/05/03 12:43:09;;;;;;;16.40;8.77;;;29.50;33.40;;;;;;5049119;28;20052;-75
2022/05/03 12:45:35;;;;;;;16.33;9.05;;;28.40;32.60;;;;;;5049397;28;20056;-73
2022/05/03 12:48:01;;;;;;;14.32;7.80;;;27.00;35.00;;;;;;5048853;28;20036;-73
2022/05/03 12:50:27;;;;;;;13.75;8.90;;;25.50;37.30;;;;;;5049365;28;20028;-77
2022/05/03 12:52:52;;;;;;;16.23;8.80;;;24.10;41.00;;;;;;5049221;28;20041;-74
2022/05/03 12:55:19;;;;;;;15.10;8.52;;;22.30;49.00;;;;;;5049080;28;20386;-75
2022/05/03 13:00:32;;;;;;;14.05;7.68;;;21.40;53.90;;;;;;5048980;28;20091;-77
2022/05/03 13:03:00;;;;;;;14.95;8.68;;;21.20;59.70;;;;;;5048863;28;20389;-74
2022/05/03 13:05:26;;;;;;;14.18;8.90;;;22.60;55.10;;;;;;5049116;28;20041;-74
2022/05/03 13:07:51;;;;;;;17.13;9.80;;;22.40;54.20;;;;;;5049070;28;20075;-74
2022/05/03 13:10:17;;;;;;;16.50;8.98;;;21.60;55.20;;;;;;5048816;28;20113;-75
2022/05/03 13:12:43;;;;;;;15.55;9.48;;;21.50;58.30;;;;;;5049005;28;20032;-76
2022/05/03 13:15:10;;;;;;;16.02;8.65;;;24.00;52.60;;;;;;5048461;28;20929;-72
2022/05/03 13:17:36;;;;;;;15.80;9.07;;;25.90;42.70;;;;;;5048451;28;20108;-74
2022/05/03 13:20:02;;;;;;;13.88;8.18;;;28.10;38.20;;;;;;5048471;28;20547;-71
2022/05/03 13:22:27;;;;;;;15.20;8.73;;;29.30;32.70;;;;;;5048774;28;20053;-72
2022/05/03 13:24:53;;;;;;;13.48;8.20;;;29.50;27.20;;;;;;5048818;28;20074;-71
2022/05/03 13:27:19;;;;;;;14.80;8.70;;;28.30;28.70;;;;;;5048396;28;20466;-72
2022/05/03 13:29:44;;;;;;;12.45;7.38;;;26.50;29.80;;;;;;5048802;28;20029;-72
2022/05/03 13:32:10;;;;;;;12.85;8.32;;;25.10;33.50;;;;;;5048441;28;20032;-72
2022/05/03 13:34:35;;;;;;;13.93;8.32;;;23.90;37.90;;;;;;5041553;28;20040;-74